createdAt,value
2023-04-04T00:00:00.352Z,5.2
2023-04-04T00:01:08.734Z,5.2
2023-04-04T00:02:17.366Z,4.7
2023-04-04T00:03:25.814Z,4.7
2023-04-04T00:04:34.075Z,4.7
2023-04-04T00:05:42.633Z,5
2023-04-04T00:06:50.988Z,5
2023-04-04T00:07:59.359Z,5
2023-04-04T00:09:07.926Z,4.9
2023-04-04T00:10:16.410Z,4.9
2023-04-04T00:11:24.682Z,4.9
2023-04-04T00:12:33.282Z,3.5
2023-04-04T00:13:41.636Z,3.5
2023-04-04T00:14:49.988Z,3.5
2023-04-04T00:15:58.596Z,4.4
2023-04-04T00:17:06.946Z,4.4
2023-04-04T00:18:15.349Z,4.4
2023-04-04T00:19:23.857Z,5
2023-04-04T00:20:32.223Z,5
2023-04-04T00:21:40.582Z,5
2023-04-04T00:22:49.153Z,4.8
2023-04-04T00:23:57.520Z,4.8
2023-04-04T00:25:05.912Z,4.8
2023-04-04T00:26:14.480Z,3.6
2023-04-04T00:27:22.832Z,3.6
2023-04-04T00:28:31.205Z,3.6
2023-04-04T00:29:39.810Z,3.4
2023-04-04T00:30:48.191Z,3.4
2023-04-04T00:31:56.591Z,3.4
2023-04-04T00:33:05.226Z,4.8
2023-04-04T00:34:13.554Z,4.8
2023-04-04T00:35:21.897Z,4.8
2023-04-04T00:36:30.496Z,3.4
2023-04-04T00:37:38.874Z,3.4
2023-04-04T00:38:47.226Z,3.4
2023-04-04T00:39:55.833Z,6.1
2023-04-04T00:41:04.179Z,6.1
2023-04-04T00:42:12.653Z,6.1
2023-04-04T00:43:21.136Z,4.2
2023-04-04T00:44:29.454Z,4.2
2023-04-04T00:45:37.894Z,4.2
2023-04-04T00:46:46.381Z,3.8
2023-04-04T00:47:54.775Z,3.8
2023-04-04T00:49:03.126Z,3.8
2023-04-04T00:50:11.688Z,3.8
2023-04-04T00:51:20.025Z,3.8
2023-04-04T00:52:28.415Z,3.8
2023-04-04T00:53:36.971Z,5.3
2023-04-04T00:54:45.343Z,5.3
2023-04-04T00:55:53.702Z,5.3
2023-04-04T00:57:02.299Z,4.4
2023-04-04T00:58:10.667Z,4.4
2023-04-04T00:59:19.042Z,4.4
2023-04-04T01:00:27.598Z,3.8
2023-04-04T01:01:36.008Z,3.8
2023-04-04T01:02:44.359Z,3.8
2023-04-04T01:03:52.940Z,3.9
2023-04-04T01:05:01.280Z,3.9
2023-04-04T01:06:09.668Z,3.9
2023-04-04T01:07:18.232Z,4.7
2023-04-04T01:08:26.591Z,4.7
2023-04-04T01:09:34.928Z,4.7
2023-04-04T01:10:43.489Z,5.1
2023-04-04T01:11:51.856Z,5.1
2023-04-04T01:13:00.232Z,5.1
2023-04-04T01:14:08.808Z,4.3
2023-04-04T01:15:17.125Z,4.3
2023-04-04T01:16:25.532Z,4.3
2023-04-04T01:17:34.086Z,3.2
2023-04-04T01:18:42.455Z,3.2
2023-04-04T01:19:50.811Z,3.2
2023-04-04T01:20:59.328Z,4.7
2023-04-04T01:22:07.703Z,4.7
2023-04-04T01:23:16.046Z,4.7
2023-04-04T01:24:24.627Z,3.6
2023-04-04T01:25:32.986Z,3.6
2023-04-04T01:26:41.372Z,3.6
2023-04-04T01:27:49.940Z,5.2
2023-04-04T01:28:58.318Z,5.2
2023-04-04T01:30:06.728Z,5.2
2023-04-04T01:31:15.287Z,5.3
2023-04-04T01:32:23.613Z,5.3
2023-04-04T01:33:31.985Z,5.3
2023-04-04T01:34:40.566Z,4.7
2023-04-04T01:35:48.921Z,4.7
2023-04-04T01:36:57.282Z,4.7
2023-04-04T01:38:05.835Z,6.1
2023-04-04T01:39:14.192Z,6.1
2023-04-04T01:40:22.554Z,6.1
2023-04-04T01:41:31.101Z,4
2023-04-04T01:42:39.497Z,4
2023-04-04T01:43:47.857Z,4
2023-04-04T01:44:56.432Z,4.8
2023-04-04T01:46:04.839Z,4.8
2023-04-04T01:47:13.150Z,4.8
2023-04-04T01:48:21.713Z,4.6
2023-04-04T01:49:30.083Z,4.6
2023-04-04T01:50:38.516Z,4.6
2023-04-04T01:51:47.067Z,4.6
2023-04-04T01:52:55.417Z,4.6
2023-04-04T01:54:03.800Z,4.6
2023-04-04T01:55:12.328Z,4.5
2023-04-04T01:56:20.680Z,4.5
2023-04-04T01:57:29.028Z,4.5
2023-04-04T01:58:37.618Z,5.6
2023-04-04T01:59:45.975Z,5.6
2023-04-04T02:00:54.332Z,5.6
2023-04-04T02:02:02.905Z,4.7
2023-04-04T02:03:11.245Z,4.7
2023-04-04T02:04:19.617Z,4.7
2023-04-04T02:05:28.146Z,3.9
2023-04-04T02:06:36.518Z,3.9
2023-04-04T02:07:44.862Z,3.9
2023-04-04T02:08:53.453Z,7.2
2023-04-04T02:10:01.824Z,7.2
2023-04-04T02:11:10.165Z,7.2
2023-04-04T02:12:18.719Z,4.8
2023-04-04T02:13:27.109Z,4.8
2023-04-04T02:14:35.447Z,4.8
2023-04-04T02:15:44.017Z,4
2023-04-04T02:16:52.362Z,4
2023-04-04T02:18:02.064Z,4
2023-04-04T02:19:09.315Z,4.2
2023-04-04T02:20:17.630Z,4.2
2023-04-04T02:21:25.970Z,4.2
2023-04-04T02:22:34.547Z,4.6
2023-04-04T02:23:42.909Z,4.6
2023-04-04T02:24:51.251Z,4.6
2023-04-04T02:25:59.823Z,4.4
2023-04-04T02:27:08.164Z,4.4
2023-04-04T02:28:16.546Z,4.4
2023-04-04T02:29:25.100Z,3.5
2023-04-04T02:30:33.461Z,3.5
2023-04-04T02:31:41.839Z,3.5
2023-04-04T02:32:50.497Z,4.7
2023-04-04T02:33:58.725Z,4.7
2023-04-04T02:35:07.048Z,4.7
2023-04-04T02:36:15.660Z,4.5
2023-04-04T02:37:23.950Z,4.5
2023-04-04T02:38:32.312Z,4.5
2023-04-04T02:39:40.869Z,6.1
2023-04-04T02:40:49.224Z,6.1
2023-04-04T02:41:57.542Z,6.1
2023-04-04T02:43:06.133Z,3
2023-04-04T02:44:14.461Z,3
2023-04-04T02:45:22.813Z,3
2023-04-04T02:46:31.400Z,4.5
2023-04-04T02:47:39.743Z,4.5
2023-04-04T02:48:48.118Z,4.5
2023-04-04T02:49:56.696Z,4.3
2023-04-04T02:51:05.037Z,4.3
2023-04-04T02:52:13.417Z,4.3
2023-04-04T02:53:21.958Z,5.3
2023-04-04T02:54:30.344Z,5.3
2023-04-04T02:55:38.677Z,5.3
2023-04-04T02:56:47.238Z,5.9
2023-04-04T02:57:55.584Z,5.9
2023-04-04T02:59:03.950Z,5.9
2023-04-04T03:00:12.504Z,4.3
2023-04-04T03:01:20.865Z,4.3
2023-04-04T03:02:29.399Z,4.3
2023-04-04T03:03:37.911Z,3.6
2023-04-04T03:04:46.109Z,3.6
2023-04-04T03:05:54.506Z,3.6
2023-04-04T03:07:03.044Z,4.3
2023-04-04T03:08:11.371Z,4.3
2023-04-04T03:09:19.764Z,4.3
2023-04-04T03:10:28.302Z,3.5
2023-04-04T03:11:36.649Z,3.5
2023-04-04T03:12:45.007Z,3.5
2023-04-04T03:13:53.589Z,5.3
2023-04-04T03:15:01.907Z,5.3
2023-04-04T03:16:10.300Z,5.3
2023-04-04T03:17:18.822Z,4.2
2023-04-04T03:18:27.203Z,4.2
2023-04-04T03:19:35.544Z,4.2
2023-04-04T03:20:44.096Z,4.1
2023-04-04T03:21:52.486Z,4.1
2023-04-04T03:23:00.811Z,4.1
2023-04-04T03:24:09.383Z,5.6
2023-04-04T03:25:17.742Z,5.6
2023-04-04T03:26:26.094Z,5.6
2023-04-04T03:27:34.621Z,3.9
2023-04-04T03:28:42.978Z,3.9
2023-04-04T03:29:51.360Z,3.9
2023-04-04T03:30:59.889Z,4.3
2023-04-04T03:32:08.288Z,4.3
2023-04-04T03:33:16.596Z,4.3
2023-04-04T03:34:25.134Z,4
2023-04-04T03:35:33.484Z,4
2023-04-04T03:36:41.818Z,4
2023-04-04T03:37:50.392Z,4.8
2023-04-04T03:38:58.745Z,4.8
2023-04-04T03:40:07.141Z,4.8
2023-04-04T03:41:15.656Z,6.1
2023-04-04T03:42:23.969Z,6.1
2023-04-04T03:43:32.307Z,6.1
2023-04-04T03:44:40.901Z,7.2
2023-04-04T03:45:49.260Z,7.2
2023-04-04T03:46:57.558Z,7.2
2023-04-04T03:48:06.071Z,4.1
2023-04-04T03:49:14.409Z,4.1
2023-04-04T03:50:22.739Z,4.1
2023-04-04T03:51:31.272Z,6.8
2023-04-04T03:52:39.615Z,6.8
2023-04-04T03:53:48.041Z,6.8
2023-04-04T03:54:56.498Z,4.4
2023-04-04T03:56:04.829Z,4.4
2023-04-04T03:57:13.153Z,4.4
2023-04-04T03:58:21.681Z,4.7
2023-04-04T03:59:30.063Z,4.7
2023-04-04T04:00:38.477Z,4.7
2023-04-04T04:01:46.892Z,4.4
2023-04-04T04:02:55.365Z,4.4
2023-04-04T04:04:03.617Z,4.4
2023-04-04T04:05:12.125Z,4.9
2023-04-04T04:06:20.447Z,4.9
2023-04-04T04:07:28.786Z,4.9
2023-04-04T04:08:37.331Z,4.7
2023-04-04T04:09:45.681Z,4.7
2023-04-04T04:10:53.990Z,4.7
2023-04-04T04:12:02.525Z,5.3
2023-04-04T04:13:10.871Z,5.3
2023-04-04T04:14:19.228Z,5.3
2023-04-04T04:15:27.766Z,4.8
2023-04-04T04:16:36.192Z,4.8
2023-04-04T04:17:44.485Z,4.8
2023-04-04T04:18:52.994Z,5.5
2023-04-04T04:20:01.304Z,5.5
2023-04-04T04:21:09.642Z,5.5
2023-04-04T04:22:18.193Z,4.7
2023-04-04T04:23:26.520Z,4.7
2023-04-04T04:24:34.861Z,4.7
2023-04-04T04:25:43.443Z,4.4
2023-04-04T04:26:51.732Z,4.4
2023-04-04T04:28:00.149Z,4.4
2023-04-04T04:29:08.655Z,4.6
2023-04-04T04:30:16.992Z,4.6
2023-04-04T04:31:25.331Z,4.6
2023-04-04T04:32:33.880Z,4.6
2023-04-04T04:33:42.225Z,4.6
2023-04-04T04:34:50.520Z,4.6
2023-04-04T04:36:00.312Z,5.2
2023-04-04T04:37:07.364Z,5.2
2023-04-04T04:38:15.695Z,5.2
2023-04-04T04:39:24.248Z,5.2
2023-04-04T04:40:32.589Z,5.2
2023-04-04T04:41:40.963Z,5.2
2023-04-04T04:42:50.732Z,5.8
2023-04-04T04:43:57.890Z,5.8
2023-04-04T04:45:06.252Z,5.8
2023-04-04T04:46:14.907Z,4.5
2023-04-04T04:47:23.250Z,4.5
2023-04-04T04:48:31.752Z,4.5
2023-04-04T04:49:40.340Z,5.1
2023-04-04T04:50:48.697Z,5.1
2023-04-04T04:51:57.110Z,5.1
2023-04-04T04:53:05.707Z,6.3
2023-04-04T04:54:14.178Z,6.3
2023-04-04T04:55:22.697Z,6.3
2023-04-04T04:56:31.303Z,4.5
2023-04-04T04:57:39.719Z,4.5
2023-04-04T04:58:48.138Z,4.5
2023-04-04T04:59:56.691Z,6.2
2023-04-04T05:01:05.134Z,6.2
2023-04-04T05:02:13.512Z,6.2
2023-04-04T05:03:22.127Z,6.4
2023-04-04T05:04:30.522Z,6.4
2023-04-04T05:05:38.892Z,6.4
2023-04-04T05:06:47.512Z,8.1
2023-04-04T05:07:55.898Z,8.1
2023-04-04T05:09:04.314Z,8.1
2023-04-04T05:10:12.925Z,5.7
2023-04-04T05:11:21.350Z,5.7
2023-04-04T05:12:29.719Z,5.7
2023-04-04T05:13:38.352Z,5.7
2023-04-04T05:14:46.723Z,5.7
2023-04-04T05:15:55.145Z,5.7
2023-04-04T05:17:03.729Z,7.4
2023-04-04T05:18:12.189Z,7.4
2023-04-04T05:19:21.188Z,7.4
2023-04-04T05:20:30.122Z,9
2023-04-04T05:21:38.570Z,9
2023-04-04T05:22:47.228Z,9
2023-04-04T05:23:55.528Z,6
2023-04-04T05:25:03.852Z,6
2023-04-04T05:26:12.238Z,6
2023-04-04T05:27:20.754Z,5.5
2023-04-04T05:28:29.105Z,5.5
2023-04-04T05:29:37.466Z,5.5
2023-04-04T05:30:45.985Z,8
2023-04-04T05:31:54.351Z,8
2023-04-04T05:33:02.764Z,8
2023-04-04T05:34:11.264Z,7.5
2023-04-04T05:35:19.654Z,7.5
2023-04-04T05:36:27.996Z,7.5
2023-04-04T05:37:36.496Z,6.9
2023-04-04T05:38:45.000Z,6.9
2023-04-04T05:39:53.347Z,6.9
2023-04-04T05:41:01.907Z,12.8
2023-04-04T05:42:10.300Z,12.8
2023-04-04T05:43:18.670Z,12.8
2023-04-04T05:44:27.247Z,69.599998
2023-04-04T05:45:35.631Z,69.599998
2023-04-04T05:46:43.946Z,69.599998
2023-04-04T05:47:52.530Z,48.700001
2023-04-04T05:49:00.821Z,48.700001
2023-04-04T05:50:09.153Z,48.700001
2023-04-04T05:51:17.692Z,6.2
2023-04-04T05:52:26.035Z,6.2
2023-04-04T05:53:34.364Z,6.2
2023-04-04T05:54:42.899Z,8.1
2023-04-04T05:55:51.248Z,8.1
2023-04-04T05:56:59.562Z,8.1
2023-04-04T05:58:08.110Z,95.699997
2023-04-04T05:59:16.463Z,95.699997
2023-04-04T06:00:24.755Z,95.699997
2023-04-04T06:01:33.326Z,8.4
2023-04-04T06:02:41.677Z,8.4
2023-04-04T06:03:49.943Z,8.4
2023-04-04T06:04:58.472Z,8.9
2023-04-04T06:06:06.788Z,8.9
2023-04-04T06:07:15.099Z,8.9
2023-04-04T06:08:23.661Z,10.1
2023-04-04T06:09:31.986Z,10.1
2023-04-04T06:10:40.524Z,10.1
2023-04-04T06:11:48.918Z,10.7
2023-04-04T06:12:57.206Z,10.7
2023-04-04T06:14:05.534Z,10.7
2023-04-04T06:15:14.068Z,10.5
2023-04-04T06:16:22.444Z,10.5
2023-04-04T06:17:30.806Z,10.5
2023-04-04T06:18:39.324Z,8.5
2023-04-04T06:19:47.649Z,8.5
2023-04-04T06:20:55.972Z,8.5
2023-04-04T06:22:04.509Z,10.5
2023-04-04T06:23:12.838Z,10.5
2023-04-04T06:24:21.185Z,10.5
2023-04-04T06:25:29.743Z,9.7
2023-04-04T06:26:38.074Z,9.7
2023-04-04T06:27:46.400Z,9.7
2023-04-04T06:28:54.950Z,11.4
2023-04-04T06:30:03.290Z,11.4
2023-04-04T06:31:11.628Z,11.4
2023-04-04T06:32:20.149Z,17.799999
2023-04-04T06:33:28.505Z,17.799999
2023-04-04T06:34:36.831Z,17.799999
2023-04-04T06:35:45.402Z,19.9
2023-04-04T06:36:53.710Z,19.9
2023-04-04T06:38:02.054Z,19.9
2023-04-04T06:39:10.593Z,16.299999
2023-04-04T06:40:18.930Z,16.299999
2023-04-04T06:41:27.296Z,16.299999
2023-04-04T06:42:35.799Z,13.3
2023-04-04T06:43:44.138Z,13.3
2023-04-04T06:44:52.468Z,13.3
2023-04-04T06:46:00.995Z,11.2
2023-04-04T06:47:09.344Z,11.2
2023-04-04T06:48:17.696Z,11.2
2023-04-04T06:49:26.276Z,14
2023-04-04T06:50:34.674Z,14
2023-04-04T06:51:43.035Z,14
2023-04-04T06:52:51.630Z,11.7
2023-04-04T06:53:59.984Z,11.7
2023-04-04T06:55:08.323Z,11.7
2023-04-04T06:56:16.860Z,9.3
2023-04-04T06:57:25.225Z,9.3
2023-04-04T06:58:33.595Z,9.3
2023-04-04T06:59:43.285Z,10.9
2023-04-04T07:00:50.469Z,10.9
2023-04-04T07:01:58.811Z,10.9
2023-04-04T07:03:07.350Z,10.6
2023-04-04T07:04:15.676Z,10.6
2023-04-04T07:05:24.052Z,10.6
2023-04-04T07:06:32.570Z,10.5
2023-04-04T07:07:40.909Z,10.5
2023-04-04T07:08:49.303Z,10.5
2023-04-04T07:09:57.802Z,12.2
2023-04-04T07:11:06.156Z,12.2
2023-04-04T07:12:14.476Z,12.2
2023-04-04T07:13:23.020Z,8.4
2023-04-04T07:14:31.418Z,8.4
2023-04-04T07:15:39.766Z,8.4
2023-04-04T07:16:48.318Z,9.7
2023-04-04T07:17:56.721Z,9.7
2023-04-04T07:19:04.981Z,9.7
2023-04-04T07:20:13.604Z,8.3
2023-04-04T07:21:21.887Z,8.3
2023-04-04T07:22:30.239Z,8.3
2023-04-04T07:23:38.821Z,9.2
2023-04-04T07:24:47.121Z,9.2
2023-04-04T07:25:55.487Z,9.2
2023-04-04T07:27:04.034Z,11.6
2023-04-04T07:28:13.414Z,11.6
2023-04-04T07:29:20.737Z,11.6
2023-04-04T07:30:29.276Z,10.8
2023-04-04T07:31:37.655Z,10.8
2023-04-04T07:32:46.068Z,10.8
2023-04-04T07:33:54.547Z,13
2023-04-04T07:35:02.885Z,13
2023-04-04T07:36:11.284Z,13
2023-04-04T07:37:19.779Z,11.2
2023-04-04T07:38:28.145Z,11.2
2023-04-04T07:39:36.469Z,11.2
2023-04-04T07:40:45.017Z,13.8
2023-04-04T07:41:53.354Z,13.8
2023-04-04T07:43:01.692Z,13.8
2023-04-04T07:44:10.311Z,20.200001
2023-04-04T07:45:18.633Z,20.200001
2023-04-04T07:46:27.043Z,20.200001
2023-04-04T07:47:35.559Z,20.1
2023-04-04T07:48:43.953Z,20.1
2023-04-04T07:49:52.277Z,20.1
2023-04-04T07:51:00.814Z,8.1
2023-04-04T07:52:09.215Z,8.1
2023-04-04T07:53:17.607Z,8.1
2023-04-04T07:54:26.160Z,9.2
2023-04-04T07:55:34.481Z,9.2
2023-04-04T07:56:42.863Z,9.2
2023-04-04T07:57:51.441Z,7.5
2023-04-04T07:58:59.814Z,7.5
2023-04-04T08:00:10.283Z,7.5
2023-04-04T08:01:19.894Z,7.3
2023-04-04T08:02:28.396Z,7.3
2023-04-04T08:03:37.099Z,7.3
2023-04-04T08:04:45.629Z,6.8
2023-04-04T08:05:53.917Z,6.8
2023-04-04T08:07:02.296Z,6.8
2023-04-04T08:08:11.707Z,8
2023-04-04T08:09:20.143Z,8
2023-04-04T08:10:28.440Z,8
2023-04-04T08:11:37.014Z,7.2
2023-04-04T08:12:45.355Z,7.2
2023-04-04T08:13:53.722Z,7.2
2023-04-04T08:15:02.295Z,8.6
2023-04-04T08:16:15.542Z,8.6
2023-04-04T08:17:24.378Z,8.6
2023-04-04T08:18:33.785Z,7.6
2023-04-04T08:19:41.783Z,7.6
2023-04-04T08:20:50.149Z,7.6
2023-04-04T08:21:58.683Z,6.3
2023-04-04T08:23:07.072Z,6.3
2023-04-04T08:24:15.462Z,6.3
2023-04-04T08:25:24.090Z,7.8
2023-04-04T08:26:32.388Z,7.8
2023-04-04T08:27:40.958Z,7.8
2023-04-04T08:28:49.529Z,6.3
2023-04-04T08:29:57.899Z,6.3
2023-04-04T08:31:06.310Z,6.3
2023-04-04T08:32:14.849Z,6.4
2023-04-04T08:33:23.486Z,6.4
2023-04-04T08:34:31.571Z,6.4
2023-04-04T08:35:40.151Z,6.7
2023-04-04T08:36:48.479Z,6.7
2023-04-04T08:37:56.835Z,6.7
2023-04-04T08:39:05.429Z,6.3
2023-04-04T08:40:13.761Z,6.3
2023-04-04T08:41:22.132Z,6.3
2023-04-04T08:42:30.657Z,7.3
2023-04-04T08:43:39.026Z,7.3
2023-04-04T08:44:47.374Z,7.3
2023-04-04T08:45:55.927Z,7.5
2023-04-04T08:47:04.397Z,7.5
2023-04-04T08:48:12.639Z,7.5
2023-04-04T08:49:21.228Z,7.6
2023-04-04T08:50:29.558Z,7.6
2023-04-04T08:51:37.944Z,7.6
2023-04-04T08:52:46.489Z,6.2
2023-04-04T08:53:54.861Z,6.2
2023-04-04T08:55:03.200Z,6.2
2023-04-04T08:56:11.783Z,4.3
2023-04-04T08:57:20.141Z,4.3
2023-04-04T08:58:28.477Z,4.3
2023-04-04T08:59:37.194Z,4.6
2023-04-04T09:00:45.419Z,4.6
2023-04-04T09:01:53.773Z,4.6
2023-04-04T09:03:02.471Z,6.2
2023-04-04T09:04:10.755Z,6.2
2023-04-04T09:05:19.106Z,6.2
2023-04-04T09:06:27.647Z,6.3
2023-04-04T09:07:38.742Z,6.3
2023-04-04T09:08:44.393Z,6.3
2023-04-04T09:09:52.953Z,4.8
2023-04-04T09:11:01.355Z,4.8
2023-04-04T09:12:09.668Z,4.8
2023-04-04T09:13:18.304Z,6.7
2023-04-04T09:14:26.633Z,6.7
2023-04-04T09:15:34.995Z,6.7
2023-04-04T09:16:43.561Z,6
2023-04-04T09:17:51.925Z,6
2023-04-04T09:19:00.266Z,6
2023-04-04T09:20:08.833Z,5.3
2023-04-04T09:21:17.182Z,5.3
2023-04-04T09:22:25.525Z,5.3
2023-04-04T09:23:34.091Z,6.2
2023-04-04T09:24:42.457Z,6.2
2023-04-04T09:26:59.342Z,4.6
2023-04-04T09:28:07.697Z,4.6
2023-04-04T09:29:16.111Z,4.6
2023-04-04T09:30:24.618Z,8.2
2023-04-04T09:31:32.982Z,8.2
2023-04-04T09:32:41.312Z,8.2
2023-04-04T09:33:49.887Z,5.4
2023-04-04T09:34:58.236Z,5.4
2023-04-04T09:36:06.602Z,5.4
2023-04-04T09:37:15.181Z,6.3
2023-04-04T09:38:23.569Z,6.3
2023-04-04T09:39:31.940Z,6.3
2023-04-04T09:40:40.668Z,6.5
2023-04-04T09:41:48.873Z,6.5
2023-04-04T09:42:57.241Z,6.5
2023-04-04T09:44:05.773Z,5.3
2023-04-04T09:45:17.100Z,5.3
2023-04-04T09:46:22.494Z,5.3
2023-04-04T09:47:31.829Z,6.3
2023-04-04T09:48:39.379Z,6.3
2023-04-04T09:49:47.756Z,6.3
2023-04-04T09:50:56.324Z,6.4
2023-04-04T09:52:04.656Z,6.4
2023-04-04T09:53:13.008Z,6.4
2023-04-04T09:54:28.670Z,5.1
2023-04-04T09:55:29.928Z,5.1
2023-04-04T09:56:38.317Z,5.1
2023-04-04T09:57:46.830Z,5.9
2023-04-04T09:59:02.962Z,5.9
2023-04-04T10:00:03.557Z,5.9
2023-04-04T10:01:12.217Z,5
2023-04-04T10:02:20.476Z,5
2023-04-04T10:03:28.815Z,5
2023-04-04T10:04:37.422Z,6.1
2023-04-04T10:05:45.770Z,6.1
2023-04-04T10:06:54.164Z,6.1
2023-04-04T10:08:02.746Z,5.8
2023-04-04T10:09:11.065Z,5.8
2023-04-04T10:10:19.431Z,5.8
2023-04-04T10:11:27.980Z,5.9
2023-04-04T10:12:36.323Z,5.9
2023-04-04T10:13:44.739Z,5.9
2023-04-04T10:14:53.229Z,5.7
2023-04-04T10:16:01.628Z,5.7
2023-04-04T10:17:10.370Z,5.7
2023-04-04T10:18:18.477Z,5.1
2023-04-04T10:19:26.856Z,5.1
2023-04-04T10:20:35.206Z,5.1
2023-04-04T10:21:43.757Z,5.7
2023-04-04T10:22:52.236Z,5.7
2023-04-04T10:24:00.618Z,5.7
2023-04-04T10:25:09.174Z,6.8
2023-04-04T10:26:17.541Z,6.8
2023-04-04T10:27:25.866Z,6.8
2023-04-04T10:28:34.573Z,5.4
2023-04-04T10:29:42.825Z,5.4
2023-04-04T10:30:59.589Z,5.4
2023-04-04T10:31:59.738Z,4.7
2023-04-04T10:33:08.092Z,4.7
2023-04-04T10:34:16.409Z,4.7
2023-04-04T10:35:24.985Z,8.1
2023-04-04T10:36:33.334Z,8.1
2023-04-04T10:37:41.679Z,8.1
2023-04-04T10:38:50.233Z,4.6
2023-04-04T10:39:58.566Z,4.6
2023-04-04T10:41:06.926Z,4.6
2023-04-04T10:42:15.464Z,5.9
2023-04-04T10:43:23.804Z,5.9
2023-04-04T10:44:32.146Z,5.9
2023-04-04T10:45:40.985Z,5.3
2023-04-04T10:46:49.069Z,5.3
2023-04-04T10:47:57.384Z,5.3
2023-04-04T10:49:06.020Z,5.5
2023-04-04T10:50:14.241Z,5.5
2023-04-04T10:51:22.557Z,5.5
2023-04-04T10:52:31.106Z,5.3
2023-04-04T10:53:39.431Z,5.3
2023-04-04T10:54:47.775Z,5.3
2023-04-04T10:55:56.299Z,5.2
2023-04-04T10:57:04.626Z,5.2
2023-04-04T10:58:12.936Z,5.2
2023-04-04T10:59:21.520Z,8
2023-04-04T11:00:29.918Z,8
2023-04-04T11:01:38.099Z,8
2023-04-04T11:02:46.685Z,7.2
2023-04-04T11:03:54.999Z,7.2
2023-04-04T11:05:03.421Z,7.2
2023-04-04T11:06:11.789Z,6.1
2023-04-04T11:07:20.133Z,6.1
2023-04-04T11:08:28.459Z,6.1
2023-04-04T11:09:36.988Z,5.2
2023-04-04T11:10:45.346Z,5.2
2023-04-04T11:11:53.658Z,5.2
2023-04-04T11:13:11.556Z,6.9
2023-04-04T11:14:10.933Z,6.9
2023-04-04T11:15:18.848Z,6.9
2023-04-04T11:16:27.392Z,8.9
2023-04-04T11:17:35.692Z,8.9
2023-04-04T11:18:44.093Z,8.9
2023-04-04T11:19:52.530Z,16
2023-04-04T11:21:00.942Z,16
2023-04-04T11:22:09.156Z,16
2023-04-04T11:23:17.693Z,7.5
2023-04-04T11:24:26.038Z,7.5
2023-04-04T11:25:34.369Z,7.5
2023-04-04T11:26:42.914Z,6.2
2023-04-04T11:27:51.219Z,6.2
2023-04-04T11:28:59.541Z,6.2
2023-04-04T11:30:08.075Z,6.8
2023-04-04T11:31:16.407Z,6.8
2023-04-04T11:32:24.745Z,6.8
2023-04-04T11:33:33.290Z,5.1
2023-04-04T11:34:41.581Z,5.1
2023-04-04T11:35:49.933Z,5.1
2023-04-04T11:36:58.476Z,5.8
2023-04-04T11:38:06.785Z,5.8
2023-04-04T11:39:15.120Z,5.8
2023-04-04T11:40:23.634Z,5.9
2023-04-04T11:41:31.959Z,5.9
2023-04-04T11:42:40.276Z,5.9
2023-04-04T11:43:48.804Z,6
2023-04-04T11:44:57.140Z,6
2023-04-04T11:46:05.518Z,6
2023-04-04T11:47:14.005Z,6.9
2023-04-04T11:48:22.342Z,6.9
2023-04-04T11:49:30.684Z,6.9
2023-04-04T11:50:39.219Z,5.8
2023-04-04T11:51:47.556Z,5.8
2023-04-04T11:52:55.921Z,5.8
2023-04-04T11:54:04.434Z,6.1
2023-04-04T11:55:12.800Z,6.1
2023-04-04T11:56:21.123Z,6.1
2023-04-04T11:57:29.656Z,5.3
2023-04-04T11:58:37.995Z,5.3
2023-04-04T11:59:46.337Z,5.3
2023-04-04T12:00:54.841Z,4.2
2023-04-04T12:02:03.158Z,4.2
2023-04-04T12:03:11.691Z,4.2
2023-04-04T12:04:20.035Z,5.7
2023-04-04T12:05:28.384Z,5.7
2023-04-04T12:06:36.625Z,5.7
2023-04-04T12:07:45.157Z,7.6
2023-04-04T12:08:53.506Z,7.6
2023-04-04T12:10:01.852Z,7.6
2023-04-04T12:11:10.352Z,8.5
2023-04-04T12:12:18.694Z,8.5
2023-04-04T12:13:26.991Z,8.5
2023-04-04T12:14:35.554Z,8.5
2023-04-04T12:15:43.970Z,8.5
2023-04-04T12:16:52.201Z,8.5
2023-04-04T12:18:00.763Z,8.7
2023-04-04T12:19:09.045Z,8.7
2023-04-04T12:20:17.366Z,8.7
2023-04-04T12:21:25.896Z,7
2023-04-04T12:22:34.221Z,7
2023-04-04T12:23:42.535Z,7
2023-04-04T12:24:51.108Z,8.2
2023-04-04T12:25:59.423Z,8.2
2023-04-04T12:27:07.778Z,8.2
2023-04-04T12:28:16.330Z,10
2023-04-04T12:29:24.646Z,10
2023-04-04T12:30:32.965Z,10
2023-04-04T12:31:41.526Z,6.5
2023-04-04T12:32:49.889Z,6.5
2023-04-04T12:33:58.132Z,6.5
2023-04-04T12:35:06.659Z,8.9
2023-04-04T12:36:15.010Z,8.9
2023-04-04T12:37:23.309Z,8.9
2023-04-04T12:38:31.833Z,6.5
2023-04-04T12:39:40.151Z,6.5
2023-04-04T12:40:48.499Z,6.5
2023-04-04T12:41:57.000Z,6.5
2023-04-04T12:43:05.351Z,6.5
2023-04-04T12:44:13.634Z,6.5
2023-04-04T12:45:22.164Z,5.6
2023-04-04T12:46:30.522Z,5.6
2023-04-04T12:47:38.850Z,5.6
2023-04-04T12:48:47.368Z,6.3
2023-04-04T12:49:55.691Z,6.3
2023-04-04T12:51:04.031Z,6.3
2023-04-04T12:52:12.554Z,11.6
2023-04-04T12:53:28.840Z,11.6
2023-04-04T12:54:29.209Z,11.6
2023-04-04T12:55:38.032Z,6.7
2023-04-04T12:56:46.073Z,6.7
2023-04-04T12:57:54.358Z,6.7
2023-04-04T12:59:02.885Z,5.3
2023-04-04T13:00:11.213Z,5.3
2023-04-04T13:01:19.561Z,5.3
2023-04-04T13:02:28.088Z,6.2
2023-04-04T13:03:36.434Z,6.2
2023-04-04T13:04:44.714Z,6.2
2023-04-04T13:05:53.286Z,6.5
2023-04-04T13:07:01.563Z,6.5
2023-04-04T13:08:09.882Z,6.5
2023-04-04T13:09:18.399Z,5.5
2023-04-04T13:10:26.718Z,5.5
2023-04-04T13:11:35.043Z,5.5
2023-04-04T13:12:43.605Z,6.5
2023-04-04T13:13:51.908Z,6.5
2023-04-04T13:15:00.257Z,6.5
2023-04-04T13:16:08.905Z,4.9
2023-04-04T13:17:17.084Z,4.9
2023-04-04T13:18:25.396Z,4.9
2023-04-04T13:19:33.928Z,7.1
2023-04-04T13:20:42.250Z,7.1
2023-04-04T13:21:50.595Z,7.1
2023-04-04T13:22:59.129Z,5.9
2023-04-04T13:24:07.425Z,5.9
2023-04-04T13:25:15.753Z,5.9
2023-04-04T13:26:24.276Z,5.4
2023-04-04T13:27:32.598Z,5.4
2023-04-04T13:28:41.011Z,5.4
2023-04-04T13:29:49.516Z,5.4
2023-04-04T13:30:57.853Z,5.4
2023-04-04T13:32:06.156Z,5.4
2023-04-04T13:33:14.719Z,4.6
2023-04-04T13:34:23.067Z,4.6
2023-04-04T13:35:31.371Z,4.6
2023-04-04T13:36:39.917Z,7.6
2023-04-04T13:37:48.227Z,7.6
2023-04-04T13:38:56.627Z,7.6
2023-04-04T13:40:05.214Z,5.7
2023-04-04T13:41:13.569Z,5.7
2023-04-04T13:42:21.900Z,5.7
2023-04-04T13:43:30.476Z,5.6
2023-04-04T13:44:38.842Z,5.6
2023-04-04T13:45:47.197Z,5.6
2023-04-04T13:46:55.723Z,4.7
2023-04-04T13:48:04.199Z,4.7
2023-04-04T13:49:12.358Z,4.7
2023-04-04T13:50:21.718Z,5.6
2023-04-04T13:51:29.242Z,5.6
2023-04-04T13:52:37.564Z,5.6
2023-04-04T13:53:46.151Z,5.4
2023-04-04T13:54:54.476Z,5.4
2023-04-04T13:56:17.461Z,5.4
2023-04-04T13:57:11.360Z,5.4
2023-04-04T13:58:19.686Z,5.4
2023-04-04T13:59:28.060Z,5.4
2023-04-04T14:00:36.590Z,5.7
2023-04-04T14:01:44.951Z,5.7
2023-04-04T14:02:55.701Z,5.7
2023-04-04T14:04:05.358Z,4.8
2023-04-04T14:05:10.146Z,4.8
2023-04-04T14:06:18.474Z,4.8
2023-04-04T14:07:27.047Z,4.3
2023-04-04T14:08:35.371Z,4.3
2023-04-04T14:09:43.684Z,4.3
2023-04-04T14:10:52.249Z,4.7
2023-04-04T14:12:00.576Z,4.7
2023-04-04T14:13:08.925Z,4.7
2023-04-04T14:14:17.492Z,6.4
2023-04-04T14:15:25.773Z,6.4
2023-04-04T14:16:34.180Z,6.4
2023-04-04T14:17:42.686Z,5.6
2023-04-04T14:18:50.979Z,5.6
2023-04-04T14:19:59.322Z,5.6
2023-04-04T14:21:07.854Z,5.7
2023-04-04T14:22:16.202Z,5.7
2023-04-04T14:23:24.535Z,5.7
2023-04-04T14:24:33.083Z,5.1
2023-04-04T14:25:41.617Z,5.1
2023-04-04T14:26:49.774Z,5.1
2023-04-04T14:27:58.308Z,5.8
2023-04-04T14:29:06.639Z,5.8
2023-04-04T14:30:14.961Z,5.8
2023-04-04T14:31:23.526Z,6.6
2023-04-04T14:32:32.726Z,6.6
2023-04-04T14:33:40.181Z,6.6
2023-04-04T14:34:48.751Z,4.5
2023-04-04T14:35:57.147Z,4.5
2023-04-04T14:37:05.526Z,4.5
2023-04-04T14:38:14.106Z,6.4
2023-04-04T14:39:22.449Z,6.4
2023-04-04T14:40:30.896Z,6.4
2023-04-04T14:41:39.462Z,5.5
2023-04-04T14:42:47.823Z,5.5
2023-04-04T14:43:56.140Z,5.5
2023-04-04T14:45:04.692Z,15.3
2023-04-04T14:46:13.845Z,15.3
2023-04-04T14:47:22.269Z,15.3
2023-04-04T14:48:30.840Z,21.200001
2023-04-04T14:49:39.169Z,21.200001
2023-04-04T14:50:47.490Z,21.200001
2023-04-04T14:51:56.025Z,7.7
2023-04-04T14:53:04.364Z,7.7
2023-04-04T14:54:12.693Z,7.7
2023-04-04T14:55:21.232Z,4.7
2023-04-04T14:56:29.563Z,4.7
2023-04-04T14:57:42.996Z,4.7
2023-04-04T14:58:46.516Z,5.2
2023-04-04T14:59:54.758Z,5.2
2023-04-04T15:01:03.087Z,5.2
2023-04-04T15:02:11.646Z,3.9
2023-04-04T15:03:19.979Z,3.9
2023-04-04T15:04:28.368Z,3.9
2023-04-04T15:05:36.869Z,5.1
2023-04-04T15:38:33.402Z,0
2023-04-04T15:39:52.123Z,0
2023-04-04T15:40:50.020Z,0
2023-04-04T15:41:58.573Z,7.4
2023-04-04T15:43:06.924Z,7.4
2023-04-04T15:44:16.471Z,7.4
2023-04-04T15:45:23.806Z,6.4
2023-04-04T15:46:32.202Z,6.4
2023-04-04T15:47:40.535Z,6.4
2023-04-04T15:48:49.031Z,7.5
2023-04-04T15:49:57.381Z,7.5
2023-04-04T15:51:05.710Z,7.5
2023-04-04T15:52:14.253Z,4.3
2023-04-04T15:53:22.588Z,4.3
2023-04-04T15:54:30.936Z,4.3
2023-04-04T15:55:39.447Z,6.4
2023-04-04T15:56:47.767Z,6.4
2023-04-04T15:57:56.131Z,6.4
2023-04-04T15:59:04.664Z,3.9
2023-04-04T16:00:12.968Z,3.9
2023-04-04T16:01:21.281Z,3.9
2023-04-04T16:02:29.879Z,4.4
2023-04-04T16:03:38.174Z,4.4
2023-04-04T16:04:46.499Z,4.4
2023-04-04T16:05:55.069Z,4.7
2023-04-04T16:07:03.382Z,4.7
2023-04-04T16:08:11.711Z,4.7
2023-04-04T16:09:20.248Z,4.4
2023-04-04T16:10:28.600Z,4.4
2023-04-04T16:11:36.892Z,4.4